sensor_id;sensor_type;location;lat;lon;timestamp;temperature;humidity
837;DHT22;400;53.550;9.932;2022-12-29T00:00:17;9.90;99.90
837;DHT22;400;53.550;9.932;2022-12-29T00:02:44;9.90;99.90
837;DHT22;400;53.550;9.932;2022-12-29T00:05:12;10.00;99.90
837;DHT22;400;53.550;9.932;2022-12-29T00:07:39;10.10;99.90
837;DHT22;400;53.550;9.932;2022-12-29T00:10:07;9.90;99.90
837;DHT22;400;53.550;9.932;2022-12-29T00:12:34;10.00;99.90
837;DHT22;400;53.550;9.932;2022-12-29T00:15:14;10.00;99.90
837;DHT22;400;53.550;9.932;2022-12-29T00:18:01;10.10;99.90
837;DHT22;400;53.550;9.932;2022-12-29T00:20:29;10.00;99.90
837;DHT22;400;53.550;9.932;2022-12-29T00:23:16;10.00;99.90
837;DHT22;400;53.550;9.932;2022-12-29T00:26:03;10.10;99.90
837;DHT22;400;53.550;9.932;2022-12-29T00:28:47;10.10;99.90
837;DHT22;400;53.550;9.932;2022-12-29T00:31:31;10.20;99.90
837;DHT22;400;53.550;9.932;2022-12-29T00:34:15;10.20;99.90
837;DHT22;400;53.550;9.932;2022-12-29T00:37:03;10.20;99.90
837;DHT22;400;53.550;9.932;2022-12-29T00:39:30;10.20;99.90
837;DHT22;400;53.550;9.932;2022-12-29T00:42:15;10.30;99.90
837;DHT22;400;53.550;9.932;2022-12-29T00:44:58;10.20;99.90
837;DHT22;400;53.550;9.932;2022-12-29T00:47:25;10.30;99.90
837;DHT22;400;53.550;9.932;2022-12-29T00:49:52;10.20;99.90
837;DHT22;400;53.550;9.932;2022-12-29T00:52:19;10.30;99.90
837;DHT22;400;53.550;9.932;2022-12-29T00:54:46;10.30;99.90
837;DHT22;400;53.550;9.932;2022-12-29T00:57:13;10.40;99.90
837;DHT22;400;53.550;9.932;2022-12-29T00:59:41;10.30;99.90
837;DHT22;400;53.550;9.932;2022-12-29T01:02:09;10.30;99.90
837;DHT22;400;53.550;9.932;2022-12-29T01:04:36;10.40;99.90
837;DHT22;400;53.550;9.932;2022-12-29T01:07:03;10.40;99.90
837;DHT22;400;53.550;9.932;2022-12-29T01:09:32;10.40;99.90
837;DHT22;400;53.550;9.932;2022-12-29T01:12:17;10.50;99.90
837;DHT22;400;53.550;9.932;2022-12-29T01:15:05;10.50;99.90
837;DHT22;400;53.550;9.932;2022-12-29T01:17:32;10.40;99.90
837;DHT22;400;53.550;9.932;2022-12-29T01:19:59;10.40;99.90
837;DHT22;400;53.550;9.932;2022-12-29T01:22:25;10.50;99.90
837;DHT22;400;53.550;9.932;2022-12-29T01:24:54;10.50;99.90
837;DHT22;400;53.550;9.932;2022-12-29T01:27:20;10.50;99.90
837;DHT22;400;53.550;9.932;2022-12-29T01:29:47;10.50;99.90
837;DHT22;400;53.550;9.932;2022-12-29T01:32:14;10.50;99.90
837;DHT22;400;53.550;9.932;2022-12-29T01:34:41;10.60;99.90
837;DHT22;400;53.550;9.932;2022-12-29T01:37:08;10.60;99.90
837;DHT22;400;53.550;9.932;2022-12-29T01:39:35;10.60;99.90
837;DHT22;400;53.550;9.932;2022-12-29T01:42:04;10.60;99.90
837;DHT22;400;53.550;9.932;2022-12-29T01:44:52;10.60;99.90
837;DHT22;400;53.550;9.932;2022-12-29T01:47:25;10.70;99.90
837;DHT22;400;53.550;9.932;2022-12-29T01:49:54;10.60;99.90
837;DHT22;400;53.550;9.932;2022-12-29T01:52:23;10.70;99.90
837;DHT22;400;53.550;9.932;2022-12-29T01:54:52;10.60;99.90
837;DHT22;400;53.550;9.932;2022-12-29T01:57:25;10.60;99.90
837;DHT22;400;53.550;9.932;2022-12-29T01:59:58;10.60;99.90
837;DHT22;400;53.550;9.932;2022-12-29T02:02:27;10.70;99.90
837;DHT22;400;53.550;9.932;2022-12-29T02:04:55;10.60;99.90
837;DHT22;400;53.550;9.932;2022-12-29T02:07:26;10.60;99.90
837;DHT22;400;53.550;9.932;2022-12-29T02:09:55;10.60;99.90
837;DHT22;400;53.550;9.932;2022-12-29T02:12:24;10.60;99.90
837;DHT22;400;53.550;9.932;2022-12-29T02:14:55;10.70;99.90
837;DHT22;400;53.550;9.932;2022-12-29T02:17:36;10.60;99.90
837;DHT22;400;53.550;9.932;2022-12-29T02:20:53;10.70;99.90
837;DHT22;400;53.550;9.932;2022-12-29T02:23:56;10.70;99.90
837;DHT22;400;53.550;9.932;2022-12-29T02:29:42;10.70;99.90
837;DHT22;400;53.550;9.932;2022-12-29T02:32:21;10.70;99.90
837;DHT22;400;53.550;9.932;2022-12-29T02:34:57;10.70;99.90
837;DHT22;400;53.550;9.932;2022-12-29T02:37:34;10.70;99.90
837;DHT22;400;53.550;9.932;2022-12-29T02:40:11;10.80;99.90
837;DHT22;400;53.550;9.932;2022-12-29T02:42:46;10.70;99.90
837;DHT22;400;53.550;9.932;2022-12-29T02:45:19;10.80;99.90
837;DHT22;400;53.550;9.932;2022-12-29T02:47:51;10.80;99.90
837;DHT22;400;53.550;9.932;2022-12-29T02:50:25;10.80;99.90
837;DHT22;400;53.550;9.932;2022-12-29T02:52:58;10.80;99.90
837;DHT22;400;53.550;9.932;2022-12-29T02:55:28;10.80;99.90
837;DHT22;400;53.550;9.932;2022-12-29T02:58:15;10.90;99.90
837;DHT22;400;53.550;9.932;2022-12-29T03:00:53;10.90;99.90
837;DHT22;400;53.550;9.932;2022-12-29T03:03:29;10.90;99.90
837;DHT22;400;53.550;9.932;2022-12-29T03:06:13;11.00;99.90
837;DHT22;400;53.550;9.932;2022-12-29T03:08:48;11.00;99.90
837;DHT22;400;53.550;9.932;2022-12-29T03:11:16;11.00;99.90
837;DHT22;400;53.550;9.932;2022-12-29T03:14:06;11.10;99.90
837;DHT22;400;53.550;9.932;2022-12-29T03:16:55;11.10;99.90
837;DHT22;400;53.550;9.932;2022-12-29T03:19:28;11.20;99.90
837;DHT22;400;53.550;9.932;2022-12-29T03:22:00;11.10;99.90
837;DHT22;400;53.550;9.932;2022-12-29T03:24:49;11.10;99.90
837;DHT22;400;53.550;9.932;2022-12-29T03:27:20;11.10;99.90
837;DHT22;400;53.550;9.932;2022-12-29T03:29:53;11.10;99.90
837;DHT22;400;53.550;9.932;2022-12-29T03:32:24;11.10;99.90
837;DHT22;400;53.550;9.932;2022-12-29T03:34:54;11.20;99.90
837;DHT22;400;53.550;9.932;2022-12-29T03:37:25;11.20;99.90
837;DHT22;400;53.550;9.932;2022-12-29T03:39:52;11.20;99.90
837;DHT22;400;53.550;9.932;2022-12-29T03:42:21;11.20;99.90
837;DHT22;400;53.550;9.932;2022-12-29T03:44:54;11.20;99.90
837;DHT22;400;53.550;9.932;2022-12-29T03:47:21;11.20;99.90
837;DHT22;400;53.550;9.932;2022-12-29T03:49:49;11.20;99.90
837;DHT22;400;53.550;9.932;2022-12-29T03:52:18;11.20;99.90
837;DHT22;400;53.550;9.932;2022-12-29T03:54:44;11.20;99.90
837;DHT22;400;53.550;9.932;2022-12-29T03:57:21;11.20;99.90
837;DHT22;400;53.550;9.932;2022-12-29T03:59:48;11.20;99.90
837;DHT22;400;53.550;9.932;2022-12-29T04:02:15;11.20;99.90
837;DHT22;400;53.550;9.932;2022-12-29T04:04:42;11.20;99.90
837;DHT22;400;53.550;9.932;2022-12-29T04:07:09;11.20;99.90
837;DHT22;400;53.550;9.932;2022-12-29T04:09:37;11.20;99.90
837;DHT22;400;53.550;9.932;2022-12-29T04:12:04;11.20;99.90
837;DHT22;400;53.550;9.932;2022-12-29T04:14:31;11.30;99.90
837;DHT22;400;53.550;9.932;2022-12-29T04:16:57;11.30;99.90
837;DHT22;400;53.550;9.932;2022-12-29T04:19:24;11.30;99.90
837;DHT22;400;53.550;9.932;2022-12-29T04:21:51;11.30;99.90
837;DHT22;400;53.550;9.932;2022-12-29T04:24:18;11.30;99.90
837;DHT22;400;53.550;9.932;2022-12-29T04:26:46;11.30;99.90
837;DHT22;400;53.550;9.932;2022-12-29T04:29:13;11.20;99.90
837;DHT22;400;53.550;9.932;2022-12-29T04:31:40;11.30;99.90
837;DHT22;400;53.550;9.932;2022-12-29T04:34:07;11.20;99.90
837;DHT22;400;53.550;9.932;2022-12-29T04:36:33;11.30;99.90
837;DHT22;400;53.550;9.932;2022-12-29T04:39:00;11.40;99.90
837;DHT22;400;53.550;9.932;2022-12-29T04:41:27;11.30;99.90
837;DHT22;400;53.550;9.932;2022-12-29T04:43:55;11.30;99.90
837;DHT22;400;53.550;9.932;2022-12-29T04:46:22;11.40;99.90
837;DHT22;400;53.550;9.932;2022-12-29T04:48:49;11.40;99.90
837;DHT22;400;53.550;9.932;2022-12-29T04:51:16;11.40;99.90
837;DHT22;400;53.550;9.932;2022-12-29T04:53:43;11.40;99.90
837;DHT22;400;53.550;9.932;2022-12-29T04:56:10;11.40;99.90
837;DHT22;400;53.550;9.932;2022-12-29T04:58:37;11.40;99.90
837;DHT22;400;53.550;9.932;2022-12-29T05:01:05;11.40;99.90
837;DHT22;400;53.550;9.932;2022-12-29T05:03:32;11.40;99.90
837;DHT22;400;53.550;9.932;2022-12-29T05:05:59;11.40;99.90
837;DHT22;400;53.550;9.932;2022-12-29T05:08:25;11.30;99.90
837;DHT22;400;53.550;9.932;2022-12-29T05:10:52;11.30;99.90
837;DHT22;400;53.550;9.932;2022-12-29T05:13:19;11.40;99.90
837;DHT22;400;53.550;9.932;2022-12-29T05:15:49;11.40;99.90
837;DHT22;400;53.550;9.932;2022-12-29T05:18:18;11.30;99.90
837;DHT22;400;53.550;9.932;2022-12-29T05:20:46;11.30;99.90
837;DHT22;400;53.550;9.932;2022-12-29T05:23:13;11.30;99.90
837;DHT22;400;53.550;9.932;2022-12-29T05:25:40;11.30;99.90
837;DHT22;400;53.550;9.932;2022-12-29T05:28:06;11.30;99.90
837;DHT22;400;53.550;9.932;2022-12-29T05:30:33;11.30;99.90
837;DHT22;400;53.550;9.932;2022-12-29T05:33:00;11.30;99.90
837;DHT22;400;53.550;9.932;2022-12-29T05:35:28;11.30;99.90
837;DHT22;400;53.550;9.932;2022-12-29T05:37:55;11.30;99.90
837;DHT22;400;53.550;9.932;2022-12-29T05:40:22;11.30;99.90
837;DHT22;400;53.550;9.932;2022-12-29T05:42:49;11.40;99.90
837;DHT22;400;53.550;9.932;2022-12-29T05:45:15;11.30;99.90
837;DHT22;400;53.550;9.932;2022-12-29T05:47:42;11.30;99.90
837;DHT22;400;53.550;9.932;2022-12-29T05:50:09;11.30;99.90
837;DHT22;400;53.550;9.932;2022-12-29T05:52:46;11.40;99.90
837;DHT22;400;53.550;9.932;2022-12-29T05:55:14;11.50;99.90
837;DHT22;400;53.550;9.932;2022-12-29T05:57:41;11.40;99.90
837;DHT22;400;53.550;9.932;2022-12-29T06:00:09;11.40;99.90
837;DHT22;400;53.550;9.932;2022-12-29T06:02:36;11.40;99.90
837;DHT22;400;53.550;9.932;2022-12-29T06:05:03;11.50;99.90
837;DHT22;400;53.550;9.932;2022-12-29T06:07:30;11.40;99.90
837;DHT22;400;53.550;9.932;2022-12-29T06:09:58;11.50;99.90
837;DHT22;400;53.550;9.932;2022-12-29T06:12:25;11.50;99.90
837;DHT22;400;53.550;9.932;2022-12-29T06:14:52;11.50;99.90
837;DHT22;400;53.550;9.932;2022-12-29T06:17:19;11.50;99.90
837;DHT22;400;53.550;9.932;2022-12-29T06:19:45;11.60;99.90
837;DHT22;400;53.550;9.932;2022-12-29T06:22:12;11.60;99.90
837;DHT22;400;53.550;9.932;2022-12-29T06:24:39;11.60;99.90
837;DHT22;400;53.550;9.932;2022-12-29T06:27:10;11.60;99.90
837;DHT22;400;53.550;9.932;2022-12-29T06:29:39;11.60;99.90
837;DHT22;400;53.550;9.932;2022-12-29T06:32:07;11.60;99.90
837;DHT22;400;53.550;9.932;2022-12-29T06:34:33;11.60;99.90
837;DHT22;400;53.550;9.932;2022-12-29T06:37:00;11.60;99.90
837;DHT22;400;53.550;9.932;2022-12-29T06:39:27;11.60;99.90
837;DHT22;400;53.550;9.932;2022-12-29T06:41:55;11.50;99.90
837;DHT22;400;53.550;9.932;2022-12-29T06:44:25;11.60;99.90
837;DHT22;400;53.550;9.932;2022-12-29T06:46:52;11.60;99.90
837;DHT22;400;53.550;9.932;2022-12-29T06:49:19;11.50;99.90
837;DHT22;400;53.550;9.932;2022-12-29T06:51:46;11.60;99.90
837;DHT22;400;53.550;9.932;2022-12-29T06:54:13;11.60;99.90
837;DHT22;400;53.550;9.932;2022-12-29T06:56:40;11.60;99.90
837;DHT22;400;53.550;9.932;2022-12-29T06:59:07;11.50;99.90
837;DHT22;400;53.550;9.932;2022-12-29T07:01:35;11.50;99.90
837;DHT22;400;53.550;9.932;2022-12-29T07:04:03;11.50;99.90
837;DHT22;400;53.550;9.932;2022-12-29T07:06:30;11.60;99.90
837;DHT22;400;53.550;9.932;2022-12-29T07:08:57;11.60;99.90
837;DHT22;400;53.550;9.932;2022-12-29T07:11:24;11.60;99.90
837;DHT22;400;53.550;9.932;2022-12-29T07:13:51;11.50;99.90
837;DHT22;400;53.550;9.932;2022-12-29T07:16:18;11.50;99.90
837;DHT22;400;53.550;9.932;2022-12-29T07:18:46;11.50;99.90
837;DHT22;400;53.550;9.932;2022-12-29T07:21:13;11.60;99.90
837;DHT22;400;53.550;9.932;2022-12-29T07:23:40;11.60;99.90
837;DHT22;400;53.550;9.932;2022-12-29T07:26:10;11.70;99.90
837;DHT22;400;53.550;9.932;2022-12-29T07:28:38;11.70;99.90
837;DHT22;400;53.550;9.932;2022-12-29T07:31:16;11.60;99.90
837;DHT22;400;53.550;9.932;2022-12-29T07:33:44;11.60;99.90
837;DHT22;400;53.550;9.932;2022-12-29T07:36:14;11.60;99.90
837;DHT22;400;53.550;9.932;2022-12-29T07:38:41;11.60;99.90
837;DHT22;400;53.550;9.932;2022-12-29T07:41:08;11.60;99.90
837;DHT22;400;53.550;9.932;2022-12-29T07:43:35;11.60;99.90
837;DHT22;400;53.550;9.932;2022-12-29T07:46:02;11.60;99.90
837;DHT22;400;53.550;9.932;2022-12-29T07:48:29;11.60;99.90
837;DHT22;400;53.550;9.932;2022-12-29T07:50:59;11.60;99.90
837;DHT22;400;53.550;9.932;2022-12-29T07:53:27;11.60;99.90
837;DHT22;400;53.550;9.932;2022-12-29T07:55:54;11.70;99.90
837;DHT22;400;53.550;9.932;2022-12-29T07:58:21;11.70;99.90
837;DHT22;400;53.550;9.932;2022-12-29T08:00:47;11.70;99.90
837;DHT22;400;53.550;9.932;2022-12-29T08:03:18;11.60;99.90
837;DHT22;400;53.550;9.932;2022-12-29T08:05:45;11.60;99.90
837;DHT22;400;53.550;9.932;2022-12-29T08:08:12;11.50;99.90
837;DHT22;400;53.550;9.932;2022-12-29T08:10:40;11.50;99.90
837;DHT22;400;53.550;9.932;2022-12-29T08:13:07;11.50;99.90
837;DHT22;400;53.550;9.932;2022-12-29T08:15:34;11.50;99.90
837;DHT22;400;53.550;9.932;2022-12-29T08:18:03;11.50;99.90
837;DHT22;400;53.550;9.932;2022-12-29T08:20:30;11.40;99.90
837;DHT22;400;53.550;9.932;2022-12-29T08:22:57;11.40;99.90
837;DHT22;400;53.550;9.932;2022-12-29T08:25:24;11.50;99.90
837;DHT22;400;53.550;9.932;2022-12-29T08:27:52;11.40;99.90
837;DHT22;400;53.550;9.932;2022-12-29T08:30:19;11.40;99.90
837;DHT22;400;53.550;9.932;2022-12-29T08:32:46;11.40;99.90
837;DHT22;400;53.550;9.932;2022-12-29T08:35:13;11.30;99.90
837;DHT22;400;53.550;9.932;2022-12-29T08:37:40;11.30;99.90
837;DHT22;400;53.550;9.932;2022-12-29T08:40:08;11.40;99.90
837;DHT22;400;53.550;9.932;2022-12-29T08:42:37;11.30;99.90
837;DHT22;400;53.550;9.932;2022-12-29T08:45:11;11.30;99.90
837;DHT22;400;53.550;9.932;2022-12-29T08:47:39;11.40;99.90
837;DHT22;400;53.550;9.932;2022-12-29T08:50:06;11.40;99.90
837;DHT22;400;53.550;9.932;2022-12-29T08:52:33;11.40;99.90
837;DHT22;400;53.550;9.932;2022-12-29T08:55:00;11.40;99.90
837;DHT22;400;53.550;9.932;2022-12-29T08:57:27;11.40;99.90
837;DHT22;400;53.550;9.932;2022-12-29T08:59:54;11.40;99.90
837;DHT22;400;53.550;9.932;2022-12-29T09:02:23;11.40;99.90
837;DHT22;400;53.550;9.932;2022-12-29T09:04:50;11.50;99.90
837;DHT22;400;53.550;9.932;2022-12-29T09:07:18;11.50;99.90
837;DHT22;400;53.550;9.932;2022-12-29T09:09:45;11.50;99.90
837;DHT22;400;53.550;9.932;2022-12-29T09:12:11;11.50;99.90
837;DHT22;400;53.550;9.932;2022-12-29T09:14:39;11.50;99.90
837;DHT22;400;53.550;9.932;2022-12-29T09:17:05;11.50;99.90
837;DHT22;400;53.550;9.932;2022-12-29T09:19:51;11.60;99.90
837;DHT22;400;53.550;9.932;2022-12-29T09:22:18;11.60;99.90
837;DHT22;400;53.550;9.932;2022-12-29T09:24:45;11.70;99.90
837;DHT22;400;53.550;9.932;2022-12-29T09:27:14;11.70;99.90
837;DHT22;400;53.550;9.932;2022-12-29T09:29:42;11.70;99.90
837;DHT22;400;53.550;9.932;2022-12-29T09:32:09;11.70;99.90
837;DHT22;400;53.550;9.932;2022-12-29T09:34:36;11.70;99.90
837;DHT22;400;53.550;9.932;2022-12-29T09:37:04;11.70;99.90
837;DHT22;400;53.550;9.932;2022-12-29T09:39:34;11.70;99.90
837;DHT22;400;53.550;9.932;2022-12-29T09:42:08;11.70;99.90
837;DHT22;400;53.550;9.932;2022-12-29T09:44:49;11.70;99.90
837;DHT22;400;53.550;9.932;2022-12-29T09:47:20;11.60;99.90
837;DHT22;400;53.550;9.932;2022-12-29T09:49:53;11.70;99.90
837;DHT22;400;53.550;9.932;2022-12-29T09:52:25;11.70;99.90
837;DHT22;400;53.550;9.932;2022-12-29T09:54:56;11.60;99.90
837;DHT22;400;53.550;9.932;2022-12-29T09:57:26;11.50;99.90
837;DHT22;400;53.550;9.932;2022-12-29T09:59:59;11.60;99.90
837;DHT22;400;53.550;9.932;2022-12-29T10:02:37;11.60;99.90
837;DHT22;400;53.550;9.932;2022-12-29T10:05:18;11.60;99.90
837;DHT22;400;53.550;9.932;2022-12-29T10:07:51;11.70;99.90
837;DHT22;400;53.550;9.932;2022-12-29T10:10:31;11.80;99.90
837;DHT22;400;53.550;9.932;2022-12-29T10:13:08;11.70;99.90
837;DHT22;400;53.550;9.932;2022-12-29T10:15:44;11.80;99.90
837;DHT22;400;53.550;9.932;2022-12-29T10:18:27;11.70;99.90
837;DHT22;400;53.550;9.932;2022-12-29T10:21:01;11.80;99.90
837;DHT22;400;53.550;9.932;2022-12-29T10:23:38;11.90;99.90
837;DHT22;400;53.550;9.932;2022-12-29T10:26:11;11.80;99.90
837;DHT22;400;53.550;9.932;2022-12-29T10:28:43;11.80;99.90
837;DHT22;400;53.550;9.932;2022-12-29T10:31:17;11.70;99.90
837;DHT22;400;53.550;9.932;2022-12-29T10:33:49;11.80;99.90
837;DHT22;400;53.550;9.932;2022-12-29T10:36:21;11.80;99.90
837;DHT22;400;53.550;9.932;2022-12-29T10:39:02;11.90;99.90
837;DHT22;400;53.550;9.932;2022-12-29T10:41:37;11.80;99.90
837;DHT22;400;53.550;9.932;2022-12-29T10:44:09;11.90;99.90
837;DHT22;400;53.550;9.932;2022-12-29T10:46:38;11.90;99.90
837;DHT22;400;53.550;9.932;2022-12-29T10:49:06;11.90;99.90
837;DHT22;400;53.550;9.932;2022-12-29T10:51:42;12.00;99.90
837;DHT22;400;53.550;9.932;2022-12-29T10:54:18;12.00;99.90
837;DHT22;400;53.550;9.932;2022-12-29T10:56:52;12.10;99.90
837;DHT22;400;53.550;9.932;2022-12-29T10:59:24;12.10;99.90
837;DHT22;400;53.550;9.932;2022-12-29T11:02:04;12.00;99.90
837;DHT22;400;53.550;9.932;2022-12-29T11:04:46;12.00;99.90
837;DHT22;400;53.550;9.932;2022-12-29T11:07:19;12.00;99.90
837;DHT22;400;53.550;9.932;2022-12-29T11:09:48;12.00;99.90
837;DHT22;400;53.550;9.932;2022-12-29T11:12:24;12.00;99.90
837;DHT22;400;53.550;9.932;2022-12-29T11:18:22;11.90;99.90
837;DHT22;400;53.550;9.932;2022-12-29T11:20:52;11.90;99.90
837;DHT22;400;53.550;9.932;2022-12-29T11:23:26;11.80;99.90
837;DHT22;400;53.550;9.932;2022-12-29T11:26:13;11.90;99.90
837;DHT22;400;53.550;9.932;2022-12-29T11:28:42;11.80;99.90
837;DHT22;400;53.550;9.932;2022-12-29T11:31:10;11.90;99.90
837;DHT22;400;53.550;9.932;2022-12-29T11:33:42;12.00;99.90
837;DHT22;400;53.550;9.932;2022-12-29T11:36:14;11.90;99.90
837;DHT22;400;53.550;9.932;2022-12-29T11:38:45;11.90;99.90
837;DHT22;400;53.550;9.932;2022-12-29T11:41:23;11.90;99.90
837;DHT22;400;53.550;9.932;2022-12-29T11:43:51;12.00;99.90
837;DHT22;400;53.550;9.932;2022-12-29T11:46:20;11.90;99.90
837;DHT22;400;53.550;9.932;2022-12-29T11:48:49;12.00;99.90
837;DHT22;400;53.550;9.932;2022-12-29T11:51:23;12.00;99.90
837;DHT22;400;53.550;9.932;2022-12-29T11:53:57;12.10;99.90
837;DHT22;400;53.550;9.932;2022-12-29T11:56:41;12.00;99.90
837;DHT22;400;53.550;9.932;2022-12-29T12:02:23;11.90;99.90
837;DHT22;400;53.550;9.932;2022-12-29T12:04:58;11.90;99.90
837;DHT22;400;53.550;9.932;2022-12-29T12:07:37;11.90;99.90
837;DHT22;400;53.550;9.932;2022-12-29T12:10:10;11.90;99.90
837;DHT22;400;53.550;9.932;2022-12-29T12:12:47;11.90;99.90
837;DHT22;400;53.550;9.932;2022-12-29T12:15:19;11.90;99.90
837;DHT22;400;53.550;9.932;2022-12-29T12:17:52;11.90;99.90
837;DHT22;400;53.550;9.932;2022-12-29T12:20:26;11.90;99.90
837;DHT22;400;53.550;9.932;2022-12-29T12:23:02;11.90;99.90
837;DHT22;400;53.550;9.932;2022-12-29T12:25:37;12.00;99.90
837;DHT22;400;53.550;9.932;2022-12-29T12:28:11;11.90;99.90
837;DHT22;400;53.550;9.932;2022-12-29T12:30:44;11.90;99.90
837;DHT22;400;53.550;9.932;2022-12-29T12:33:18;11.90;99.90
837;DHT22;400;53.550;9.932;2022-12-29T12:35:57;11.90;99.90
837;DHT22;400;53.550;9.932;2022-12-29T12:38:33;11.90;99.90
837;DHT22;400;53.550;9.932;2022-12-29T12:41:10;12.00;99.90
837;DHT22;400;53.550;9.932;2022-12-29T12:43:45;12.00;99.90
837;DHT22;400;53.550;9.932;2022-12-29T12:46:40;12.10;99.90
837;DHT22;400;53.550;9.932;2022-12-29T12:49:35;12.00;99.90
837;DHT22;400;53.550;9.932;2022-12-29T12:52:13;12.00;99.90
837;DHT22;400;53.550;9.932;2022-12-29T12:54:59;11.90;99.90
837;DHT22;400;53.550;9.932;2022-12-29T12:57:40;11.90;99.90
837;DHT22;400;53.550;9.932;2022-12-29T13:00:14;11.90;99.90
837;DHT22;400;53.550;9.932;2022-12-29T13:02:57;12.00;99.90
837;DHT22;400;53.550;9.932;2022-12-29T13:05:34;11.90;99.90
837;DHT22;400;53.550;9.932;2022-12-29T13:08:34;11.90;99.90
837;DHT22;400;53.550;9.932;2022-12-29T13:11:10;11.90;99.90
837;DHT22;400;53.550;9.932;2022-12-29T13:14:02;11.90;99.90
837;DHT22;400;53.550;9.932;2022-12-29T13:16:39;11.90;99.90
837;DHT22;400;53.550;9.932;2022-12-29T13:19:13;11.80;99.90
837;DHT22;400;53.550;9.932;2022-12-29T13:21:56;11.70;99.90
837;DHT22;400;53.550;9.932;2022-12-29T13:24:32;11.80;99.90
837;DHT22;400;53.550;9.932;2022-12-29T13:27:09;11.80;99.90
837;DHT22;400;53.550;9.932;2022-12-29T13:29:46;11.60;99.90
837;DHT22;400;53.550;9.932;2022-12-29T13:32:30;11.60;99.90
837;DHT22;400;53.550;9.932;2022-12-29T13:35:17;11.50;99.90
837;DHT22;400;53.550;9.932;2022-12-29T13:37:57;11.40;99.90
837;DHT22;400;53.550;9.932;2022-12-29T13:40:32;11.60;99.90
837;DHT22;400;53.550;9.932;2022-12-29T13:43:02;11.40;99.90
837;DHT22;400;53.550;9.932;2022-12-29T13:45:32;11.40;99.90
837;DHT22;400;53.550;9.932;2022-12-29T13:48:05;11.40;99.90
837;DHT22;400;53.550;9.932;2022-12-29T13:50:36;11.30;99.90
837;DHT22;400;53.550;9.932;2022-12-29T13:53:11;11.20;99.90
837;DHT22;400;53.550;9.932;2022-12-29T13:55:49;11.20;99.90
837;DHT22;400;53.550;9.932;2022-12-29T13:58:27;11.20;99.90
837;DHT22;400;53.550;9.932;2022-12-29T14:01:02;11.40;99.90
837;DHT22;400;53.550;9.932;2022-12-29T14:03:53;11.40;99.90
837;DHT22;400;53.550;9.932;2022-12-29T14:06:25;11.30;99.90
837;DHT22;400;53.550;9.932;2022-12-29T14:08:57;11.10;99.90
837;DHT22;400;53.550;9.932;2022-12-29T14:11:31;10.90;99.90
837;DHT22;400;53.550;9.932;2022-12-29T14:13:59;10.60;99.90
837;DHT22;400;53.550;9.932;2022-12-29T14:16:37;10.10;99.90
837;DHT22;400;53.550;9.932;2022-12-29T14:19:19;9.80;99.90
837;DHT22;400;53.550;9.932;2022-12-29T14:21:53;9.70;99.90
837;DHT22;400;53.550;9.932;2022-12-29T14:24:40;9.50;99.90
837;DHT22;400;53.550;9.932;2022-12-29T14:27:44;9.60;99.90
837;DHT22;400;53.550;9.932;2022-12-29T14:33:26;9.60;99.90
837;DHT22;400;53.550;9.932;2022-12-29T14:35:56;9.70;99.90
837;DHT22;400;53.550;9.932;2022-12-29T14:38:29;9.80;99.90
837;DHT22;400;53.550;9.932;2022-12-29T14:41:16;9.70;99.90
837;DHT22;400;53.550;9.932;2022-12-29T14:43:57;9.70;99.90
837;DHT22;400;53.550;9.932;2022-12-29T14:46:25;9.80;99.90
837;DHT22;400;53.550;9.932;2022-12-29T14:48:58;9.90;99.90
837;DHT22;400;53.550;9.932;2022-12-29T14:51:34;9.90;99.90
837;DHT22;400;53.550;9.932;2022-12-29T14:57:06;9.80;99.90
837;DHT22;400;53.550;9.932;2022-12-29T14:59:35;9.90;99.90
837;DHT22;400;53.550;9.932;2022-12-29T15:02:10;9.80;99.90
837;DHT22;400;53.550;9.932;2022-12-29T15:04:39;9.80;99.90
837;DHT22;400;53.550;9.932;2022-12-29T15:07:09;9.70;99.90
837;DHT22;400;53.550;9.932;2022-12-29T15:09:41;9.70;99.90
837;DHT22;400;53.550;9.932;2022-12-29T15:12:20;9.80;99.90
837;DHT22;400;53.550;9.932;2022-12-29T15:14:50;9.80;99.90
837;DHT22;400;53.550;9.932;2022-12-29T15:17:25;9.80;99.90
837;DHT22;400;53.550;9.932;2022-12-29T15:19:54;9.80;99.90
837;DHT22;400;53.550;9.932;2022-12-29T15:22:26;9.80;99.90
837;DHT22;400;53.550;9.932;2022-12-29T15:24:59;9.70;99.90
837;DHT22;400;53.550;9.932;2022-12-29T15:27:29;9.80;99.90
837;DHT22;400;53.550;9.932;2022-12-29T15:29:57;9.70;99.90
837;DHT22;400;53.550;9.932;2022-12-29T15:32:26;9.80;99.90
837;DHT22;400;53.550;9.932;2022-12-29T15:34:54;9.90;99.90
837;DHT22;400;53.550;9.932;2022-12-29T15:37:33;9.90;99.90
837;DHT22;400;53.550;9.932;2022-12-29T15:40:04;9.80;99.90
837;DHT22;400;53.550;9.932;2022-12-29T15:42:52;9.90;99.90
837;DHT22;400;53.550;9.932;2022-12-29T15:45:21;10.00;99.90
837;DHT22;400;53.550;9.932;2022-12-29T15:47:57;10.10;99.90
837;DHT22;400;53.550;9.932;2022-12-29T15:50:31;10.10;99.90
837;DHT22;400;53.550;9.932;2022-12-29T15:53:10;10.20;99.90
837;DHT22;400;53.550;9.932;2022-12-29T15:55:39;10.20;99.90
837;DHT22;400;53.550;9.932;2022-12-29T15:58:19;10.30;99.90
837;DHT22;400;53.550;9.932;2022-12-29T16:00:47;10.20;99.90
837;DHT22;400;53.550;9.932;2022-12-29T16:03:16;10.00;99.90
837;DHT22;400;53.550;9.932;2022-12-29T16:05:51;10.00;99.90
837;DHT22;400;53.550;9.932;2022-12-29T16:08:31;10.10;99.90
837;DHT22;400;53.550;9.932;2022-12-29T16:11:02;10.20;99.90
837;DHT22;400;53.550;9.932;2022-12-29T16:13:34;10.10;99.90
837;DHT22;400;53.550;9.932;2022-12-29T16:16:08;10.10;99.90
837;DHT22;400;53.550;9.932;2022-12-29T16:18:37;10.10;99.90
837;DHT22;400;53.550;9.932;2022-12-29T16:21:12;10.10;99.90
837;DHT22;400;53.550;9.932;2022-12-29T16:23:47;9.90;99.90
837;DHT22;400;53.550;9.932;2022-12-29T16:26:17;10.10;99.90
837;DHT22;400;53.550;9.932;2022-12-29T16:28:48;10.10;99.90
837;DHT22;400;53.550;9.932;2022-12-29T16:31:19;10.20;99.90
837;DHT22;400;53.550;9.932;2022-12-29T16:33:48;10.00;99.90
837;DHT22;400;53.550;9.932;2022-12-29T16:36:32;10.00;99.90
837;DHT22;400;53.550;9.932;2022-12-29T16:39:24;10.10;99.90
837;DHT22;400;53.550;9.932;2022-12-29T16:41:53;10.10;99.90
837;DHT22;400;53.550;9.932;2022-12-29T16:44:22;10.20;99.90
837;DHT22;400;53.550;9.932;2022-12-29T16:47:05;10.20;99.90
837;DHT22;400;53.550;9.932;2022-12-29T16:49:45;10.20;99.90
837;DHT22;400;53.550;9.932;2022-12-29T16:52:19;10.20;99.90
837;DHT22;400;53.550;9.932;2022-12-29T16:54:55;10.20;99.90
837;DHT22;400;53.550;9.932;2022-12-29T16:57:27;10.20;99.90
837;DHT22;400;53.550;9.932;2022-12-29T17:00:07;10.30;99.90
837;DHT22;400;53.550;9.932;2022-12-29T17:02:35;10.20;99.90
837;DHT22;400;53.550;9.932;2022-12-29T17:05:15;10.20;99.90
837;DHT22;400;53.550;9.932;2022-12-29T17:07:48;10.10;99.90
837;DHT22;400;53.550;9.932;2022-12-29T17:10:25;10.10;99.90
837;DHT22;400;53.550;9.932;2022-12-29T17:13:17;10.10;99.90
837;DHT22;400;53.550;9.932;2022-12-29T17:15:47;10.20;99.90
837;DHT22;400;53.550;9.932;2022-12-29T17:18:14;10.20;99.90
837;DHT22;400;53.550;9.932;2022-12-29T17:20:41;10.20;99.90
837;DHT22;400;53.550;9.932;2022-12-29T17:23:14;10.20;99.90
837;DHT22;400;53.550;9.932;2022-12-29T17:25:46;10.20;99.90